Decoded Metar for KUTS (HUNTSVILLE in TX, USA) (IATA:UTS) | Meteo·Mobile Aviation Weather
aviador You're here:

KUTS Decoded Metar

HUNTSVILLE in TX, USA
Report Time2019-02-16 17:53:00
UTC Time2019-02-16 18:18:59
Flight Rules ifr IFR
WindVRB at 03 kt
Visibility8047 m
Phenomena:Mist
Clouds:Overcast 005 Hf
Expected CloudBase > 400 ft AGL from Temp-Dew spread
Ceiling500 ft
Temp09°C (ISA -5)
Dew Point08°C (94% RH)
AAT7.5°C
QNH1010 hPa
Density Alt-49 ft
Elevation341 ft
Report Wrong Elevation
Raw Report
KUTS 161753Z AUTO VRB03KT 5SM BR OVC005 09/08 A2983 RMK AO2 SLP099
T00890078 10094 20078 58007=

Extra information for KUTS:More info

Metar Taf Metar & Taf Last 4 Metars F.Rules Stats Wind Profile Meteogram Temp Stats Airport Information Weather charts Add Link Nearby VenuesMetar ALERT Operation Metar Decoded Social comments

AIRNAV info for KUTS